createdAt,value
2023-02-20T00:01:51.908Z,7.74
2023-02-20T00:04:21.167Z,7.68
2023-02-20T00:06:50.755Z,7.73
2023-02-20T00:09:19.471Z,7.65
2023-02-20T00:11:47.727Z,7.61
2023-02-20T00:14:16.321Z,7.63
2023-02-20T00:16:48.663Z,7.65
2023-02-20T00:19:18.165Z,7.63
2023-02-20T00:21:49.022Z,7.63
2023-02-20T00:24:18.404Z,7.62
2023-02-20T00:26:49.939Z,7.56
2023-02-20T00:29:19.978Z,7.61
2023-02-20T00:31:57.290Z,7.63
2023-02-20T00:34:28.220Z,7.59
2023-02-20T00:36:57.244Z,7.56
2023-02-20T00:39:24.669Z,7.56
2023-02-20T00:41:56.559Z,7.62
2023-02-20T00:44:24.282Z,7.64
2023-02-20T00:46:51.582Z,7.57
2023-02-20T00:49:20.201Z,7.57
2023-02-20T00:51:48.961Z,7.60
2023-02-20T00:54:18.739Z,7.56
2023-02-20T00:56:47.637Z,7.64
2023-02-20T00:59:16.959Z,7.51
2023-02-20T01:01:44.852Z,7.46
2023-02-20T01:04:14.063Z,7.54
2023-02-20T01:06:42.447Z,7.54
2023-02-20T01:09:09.432Z,7.47
2023-02-20T01:11:38.817Z,7.44
2023-02-20T01:14:06.941Z,7.37
2023-02-20T01:16:35.797Z,7.43
2023-02-20T01:19:03.349Z,7.39
2023-02-20T01:21:31.710Z,7.44
2023-02-20T01:23:59.414Z,7.39
2023-02-20T01:26:28.158Z,7.49
2023-02-20T01:28:56.292Z,7.54
2023-02-20T01:31:25.003Z,7.55
2023-02-20T01:33:52.352Z,7.52
2023-02-20T01:36:21.659Z,7.53
2023-02-20T01:38:51.580Z,7.52
2023-02-20T01:41:19.317Z,7.52
2023-02-20T01:43:48.993Z,7.61
2023-02-20T01:46:44.072Z,7.54
2023-02-20T01:49:18.153Z,7.50
2023-02-20T01:51:50.879Z,7.55
2023-02-20T01:54:24.010Z,7.59
2023-02-20T01:56:53.966Z,7.58
2023-02-20T01:59:23.525Z,7.56
2023-02-20T02:01:51.360Z,7.53
2023-02-20T02:04:19.645Z,7.55
2023-02-20T02:06:54.040Z,7.53
2023-02-20T02:09:35.385Z,7.53
2023-02-20T02:12:03.115Z,7.52
2023-02-20T02:14:31.215Z,7.56
2023-02-20T02:17:24.291Z,7.51
2023-02-20T02:20:06.491Z,7.43
2023-02-20T02:23:10.982Z,7.50
2023-02-20T02:25:52.506Z,7.54
2023-02-20T02:28:37.215Z,7.54
2023-02-20T02:31:30.521Z,7.52
2023-02-20T02:34:28.315Z,7.50
2023-02-20T02:37:24.003Z,7.51
2023-02-20T02:40:13.295Z,7.46
2023-02-20T02:43:03.220Z,7.52
2023-02-20T02:45:42.766Z,7.49
2023-02-20T02:48:23.288Z,7.54
2023-02-20T02:50:54.551Z,7.50
2023-02-20T02:53:23.412Z,7.53
2023-02-20T02:55:50.823Z,7.60
2023-02-20T02:58:19.548Z,7.58
2023-02-20T03:00:55.522Z,7.62
2023-02-20T03:03:29.515Z,7.63
2023-02-20T03:06:04.894Z,7.66
2023-02-20T03:08:57.607Z,7.68
2023-02-20T03:11:28.933Z,7.63
2023-02-20T03:14:19.313Z,7.70
2023-02-20T03:17:05.486Z,7.63
2023-02-20T03:19:41.078Z,7.64
2023-02-20T03:22:19.936Z,7.67
2023-02-20T03:24:58.675Z,7.61
2023-02-20T03:27:39.049Z,7.58
2023-02-20T03:30:13.474Z,7.70
2023-02-20T03:32:59.605Z,7.68
2023-02-20T03:35:44.737Z,7.70
2023-02-20T03:38:33.178Z,7.70
2023-02-20T03:41:18.742Z,7.72
2023-02-20T03:43:49.540Z,7.65
2023-02-20T03:46:23.320Z,7.61
2023-02-20T03:49:01.279Z,7.66
2023-02-20T03:51:31.100Z,7.68
2023-02-20T03:54:00.976Z,7.71
2023-02-20T03:56:36.392Z,7.68
2023-02-20T03:59:17.009Z,7.67
2023-02-20T04:01:49.029Z,7.67
2023-02-20T04:04:23.726Z,7.74
2023-02-20T04:06:53.428Z,7.73
2023-02-20T04:09:24.446Z,7.72
2023-02-20T04:12:00.459Z,7.75
2023-02-20T04:14:30.674Z,7.67
2023-02-20T04:17:03.990Z,7.64
2023-02-20T04:19:32.480Z,7.66
2023-02-20T04:22:04.429Z,7.64
2023-02-20T04:24:42.588Z,7.67
2023-02-20T04:27:12.570Z,7.70
2023-02-20T04:29:41.718Z,7.68
2023-02-20T04:32:10.722Z,7.66
2023-02-20T04:34:37.749Z,7.63
2023-02-20T04:37:10.200Z,7.58
2023-02-20T04:39:38.053Z,7.62
2023-02-20T04:42:10.404Z,7.62
2023-02-20T04:44:37.552Z,7.63
2023-02-20T04:47:08.501Z,7.68
2023-02-20T04:49:36.152Z,7.60
2023-02-20T04:52:03.795Z,7.62
2023-02-20T04:54:33.083Z,7.64
2023-02-20T04:57:00.102Z,7.61
2023-02-20T04:59:27.630Z,7.61
2023-02-20T05:01:57.830Z,7.63
2023-02-20T05:04:26.049Z,7.65
2023-02-20T05:06:56.395Z,7.60
2023-02-20T05:09:25.354Z,7.56
2023-02-20T05:11:52.795Z,7.64
2023-02-20T05:14:22.286Z,7.61
2023-02-20T05:16:51.583Z,7.58
2023-02-20T05:19:19.774Z,7.61
2023-02-20T05:22:03.998Z,7.58
2023-02-20T05:24:33.572Z,7.60
2023-02-20T05:27:01.878Z,7.59
2023-02-20T05:29:29.911Z,7.50
2023-02-20T05:31:58.066Z,7.49
2023-02-20T05:34:26.859Z,7.53
2023-02-20T05:36:55.880Z,7.54
2023-02-20T05:39:24.182Z,7.50
2023-02-20T05:41:53.391Z,7.52
2023-02-20T05:44:21.436Z,7.52
2023-02-20T05:46:49.862Z,7.42
2023-02-20T05:49:19.967Z,7.39
2023-02-20T05:51:51.432Z,7.36
2023-02-20T05:54:20.923Z,7.38
2023-02-20T05:56:49.729Z,7.33
2023-02-20T05:59:21.342Z,7.35
2023-02-20T06:01:53.676Z,7.35
2023-02-20T06:04:22.184Z,7.39
2023-02-20T06:06:51.101Z,7.35
2023-02-20T06:09:20.743Z,7.30
2023-02-20T06:11:51.237Z,7.37
2023-02-20T06:14:22.254Z,7.39
2023-02-20T06:16:50.552Z,7.46
2023-02-20T06:19:22.539Z,7.40
2023-02-20T06:21:53.924Z,7.44
2023-02-20T06:24:23.180Z,7.34
2023-02-20T06:26:52.504Z,7.37
2023-02-20T06:29:21.769Z,7.43
2023-02-20T06:31:49.947Z,7.42
2023-02-20T06:34:23.647Z,7.46
2023-02-20T06:36:51.402Z,7.45
2023-02-20T06:39:19.547Z,7.57
2023-02-20T06:41:47.903Z,7.50
2023-02-20T06:44:16.336Z,7.49
2023-02-20T06:46:45.264Z,7.55
2023-02-20T06:49:13.818Z,7.56
2023-02-20T06:51:42.407Z,7.59
2023-02-20T06:54:12.658Z,7.60
2023-02-20T06:56:39.948Z,7.57
2023-02-20T06:59:10.277Z,7.50
2023-02-20T07:01:41.414Z,7.46
2023-02-20T07:04:21.605Z,7.55
2023-02-20T07:06:51.038Z,7.58
2023-02-20T07:09:22.430Z,7.61
2023-02-20T07:11:52.280Z,7.69
2023-02-20T07:14:22.231Z,7.75
2023-02-20T07:16:49.974Z,7.70
2023-02-20T07:19:18.521Z,7.73
2023-02-20T07:21:48.286Z,7.70
2023-02-20T07:24:17.364Z,7.76
2023-02-20T07:26:45.704Z,7.82
2023-02-20T07:29:14.667Z,7.86
2023-02-20T07:31:44.468Z,7.89
2023-02-20T07:34:14.288Z,7.82
2023-02-20T07:36:43.908Z,7.87
2023-02-20T07:39:13.957Z,7.88
2023-02-20T07:41:42.691Z,7.91
2023-02-20T07:44:13.808Z,8.01
2023-02-20T07:46:41.594Z,8.01
2023-02-20T07:49:10.838Z,7.96
2023-02-20T07:51:39.398Z,8.04
2023-02-20T07:54:08.306Z,8.08
2023-02-20T07:56:37.233Z,8.06
2023-02-20T07:59:07.099Z,8.15
2023-02-20T08:01:36.279Z,8.12
2023-02-20T08:04:05.067Z,8.17
2023-02-20T08:06:34.069Z,8.15
2023-02-20T08:09:02.868Z,8.13
2023-02-20T08:11:35.477Z,8.21
2023-02-20T08:14:05.918Z,8.13
2023-02-20T08:16:34.429Z,8.13
2023-02-20T08:19:03.418Z,8.16
2023-02-20T08:21:31.927Z,8.16
2023-02-20T08:24:01.143Z,8.13
2023-02-20T08:26:29.737Z,8.23
2023-02-20T08:28:58.297Z,8.26
2023-02-20T08:31:32.689Z,8.27
2023-02-20T08:34:02.793Z,8.24
2023-02-20T08:36:32.215Z,8.26
2023-02-20T08:39:02.390Z,8.24
2023-02-20T08:41:31.984Z,8.23
2023-02-20T08:44:02.335Z,8.23
2023-02-20T08:46:31.034Z,8.26
2023-02-20T08:49:00.587Z,8.33
2023-02-20T08:51:29.200Z,8.26
2023-02-20T08:53:58.058Z,8.28
2023-02-20T08:56:28.059Z,8.29
2023-02-20T08:58:57.429Z,8.34
2023-02-20T09:01:26.575Z,8.38
2023-02-20T09:03:57.206Z,8.40
2023-02-20T09:06:27.004Z,8.44
2023-02-20T09:08:56.025Z,8.45
2023-02-20T09:11:24.032Z,8.52
2023-02-20T09:13:53.593Z,8.48
2023-02-20T09:16:24.725Z,8.47
2023-02-20T09:18:57.539Z,8.45
2023-02-20T09:21:26.136Z,8.50
2023-02-20T09:23:53.631Z,8.51
2023-02-20T09:26:23.239Z,8.55
2023-02-20T09:28:52.825Z,8.49
2023-02-20T09:31:23.186Z,8.56
2023-02-20T09:33:52.456Z,8.58
2023-02-20T09:36:21.652Z,8.60
2023-02-20T09:38:50.001Z,8.59
2023-02-20T09:41:36.937Z,8.65
2023-02-20T09:44:16.946Z,8.59
2023-02-20T09:46:49.211Z,8.65
2023-02-20T09:49:27.078Z,8.66
2023-02-20T09:52:01.126Z,8.69
2023-02-20T09:54:37.481Z,8.75
2023-02-20T09:57:14.423Z,8.81
2023-02-20T09:59:49.385Z,8.74
2023-02-20T10:02:23.376Z,8.84
2023-02-20T10:05:01.351Z,8.83
2023-02-20T10:07:34.481Z,8.86
2023-02-20T10:10:40.945Z,8.88
2023-02-20T10:13:13.253Z,8.90
2023-02-20T10:16:13.856Z,8.94
2023-02-20T10:19:06.075Z,8.99
2023-02-20T10:22:12.834Z,8.96
2023-02-20T10:24:57.617Z,8.95
2023-02-20T10:27:26.711Z,8.98
2023-02-20T10:29:57.820Z,9.06
2023-02-20T10:32:46.230Z,9.20
2023-02-20T10:35:35.766Z,9.32
2023-02-20T10:38:10.086Z,9.44
2023-02-20T10:40:45.260Z,9.53
2023-02-20T10:43:26.988Z,9.61
2023-02-20T10:46:05.108Z,9.62
2023-02-20T10:48:35.235Z,9.58
2023-02-20T10:51:27.105Z,9.61
2023-02-20T10:54:03.872Z,9.53
2023-02-20T10:56:48.528Z,9.63
2023-02-20T10:59:29.905Z,9.59
2023-02-20T11:02:01.610Z,9.71
2023-02-20T11:04:36.798Z,9.82
2023-02-20T11:07:09.884Z,9.93
2023-02-20T11:09:40.098Z,10.00
2023-02-20T11:12:19.779Z,10.16
2023-02-20T11:14:51.376Z,10.17
2023-02-20T11:17:23.275Z,10.21
2023-02-20T11:19:56.320Z,10.24
2023-02-20T11:22:44.436Z,10.35
2023-02-20T11:25:30.335Z,10.55
2023-02-20T11:28:10.077Z,10.60
2023-02-20T11:30:43.926Z,10.63
2023-02-20T11:33:23.203Z,10.70
2023-02-20T11:35:56.873Z,10.76
2023-02-20T11:38:25.568Z,10.82
2023-02-20T11:40:54.733Z,10.90
2023-02-20T11:43:28.453Z,10.93
2023-02-20T11:46:17.285Z,10.96
2023-02-20T11:49:10.539Z,10.95
2023-02-20T11:51:45.642Z,11.02
2023-02-20T11:54:19.299Z,11.10
2023-02-20T11:57:07.220Z,11.17
2023-02-20T11:59:47.626Z,11.25
2023-02-20T12:02:18.775Z,11.27
2023-02-20T12:05:02.621Z,11.31
2023-02-20T12:07:36.707Z,11.40
2023-02-20T12:10:26.923Z,11.39
2023-02-20T12:12:57.308Z,11.56
2023-02-20T12:15:31.921Z,11.50
2023-02-20T12:18:11.840Z,11.59
2023-02-20T12:20:50.380Z,11.61
2023-02-20T12:23:33.981Z,11.66
2023-02-20T12:26:23.325Z,11.64
2023-02-20T12:29:21.186Z,11.76
2023-02-20T12:31:55.941Z,11.83
2023-02-20T12:34:37.924Z,11.77
2023-02-20T12:37:08.882Z,11.78
2023-02-20T12:39:46.803Z,11.84
2023-02-20T12:42:41.336Z,11.96
2023-02-20T12:45:34.709Z,12.04
2023-02-20T12:48:18.913Z,12.06
2023-02-20T12:50:57.455Z,12.12
2023-02-20T12:53:40.090Z,12.17
2023-02-20T12:56:17.514Z,12.20
2023-02-20T12:58:46.838Z,12.17
2023-02-20T13:01:27.673Z,12.22
2023-02-20T13:04:08.757Z,12.20
2023-02-20T13:06:57.053Z,12.09
2023-02-20T13:09:34.013Z,12.04
2023-02-20T13:12:08.876Z,12.09
2023-02-20T13:15:03.323Z,12.10
2023-02-20T13:17:54.474Z,12.13
2023-02-20T13:20:27.120Z,12.11
2023-02-20T13:23:31.148Z,12.11
2023-02-20T13:26:01.994Z,12.10
2023-02-20T13:28:47.492Z,12.15
2023-02-20T13:31:37.269Z,12.07
2023-02-20T13:34:06.648Z,12.08
2023-02-20T13:36:36.321Z,12.01
2023-02-20T13:39:20.478Z,11.88
2023-02-20T13:42:05.304Z,11.85
2023-02-20T13:44:42.257Z,11.83
2023-02-20T13:47:35.323Z,11.78
2023-02-20T13:50:04.523Z,11.78
2023-02-20T13:52:41.074Z,11.82
2023-02-20T13:55:24.972Z,11.97
2023-02-20T13:58:10.769Z,12.11
2023-02-20T14:00:58.665Z,12.19
2023-02-20T14:03:27.407Z,12.26
2023-02-20T14:06:13.773Z,12.23
2023-02-20T14:08:45.284Z,12.21
2023-02-20T14:11:34.582Z,12.25
2023-02-20T14:14:24.064Z,12.31
2023-02-20T14:16:51.777Z,12.34
2023-02-20T14:19:30.728Z,12.46
2023-02-20T14:22:22.731Z,12.62
2023-02-20T14:25:18.911Z,12.74
2023-02-20T14:27:50.063Z,12.78
2023-02-20T14:30:22.273Z,12.79
2023-02-20T14:32:54.983Z,12.83
2023-02-20T14:35:54.889Z,12.90
2023-02-20T14:38:48.434Z,12.97
2023-02-20T14:41:21.445Z,13.10
2023-02-20T14:44:06.492Z,13.12
2023-02-20T14:46:36.557Z,13.21
2023-02-20T14:49:09.094Z,13.26
2023-02-20T14:51:38.020Z,13.27
2023-02-20T14:54:24.763Z,13.27
2023-02-20T14:56:54.499Z,13.27
2023-02-20T14:59:40.502Z,13.28
2023-02-20T15:02:34.312Z,13.28
2023-02-20T15:05:05.596Z,13.33
2023-02-20T15:07:34.652Z,13.28
2023-02-20T15:10:05.204Z,13.30
2023-02-20T15:12:35.124Z,13.28
2023-02-20T15:15:05.961Z,13.22
2023-02-20T15:17:36.092Z,13.16
2023-02-20T15:20:31.735Z,13.06
2023-02-20T15:23:15.848Z,12.96
2023-02-20T15:25:45.359Z,12.96
2023-02-20T15:28:27.187Z,12.94
2023-02-20T15:31:06.427Z,12.82
2023-02-20T15:33:51.325Z,12.77
2023-02-20T15:36:23.531Z,12.77
2023-02-20T15:38:55.320Z,12.78
2023-02-20T15:41:25.190Z,12.72
2023-02-20T15:43:54.531Z,12.73
2023-02-20T15:46:23.039Z,12.64
2023-02-20T15:48:54.085Z,12.59
2023-02-20T15:51:23.592Z,12.63
2023-02-20T15:53:55.613Z,12.50
2023-02-20T15:56:23.570Z,12.43
2023-02-20T15:58:52.862Z,12.39
2023-02-20T16:01:21.485Z,12.38
2023-02-20T16:03:52.769Z,12.30
2023-02-20T16:06:22.928Z,12.19
2023-02-20T16:08:52.884Z,12.20
2023-02-20T16:11:25.909Z,12.06
2023-02-20T16:13:57.484Z,12.20
2023-02-20T16:16:44.162Z,12.11
2023-02-20T16:19:14.164Z,12.05
2023-02-20T16:21:53.113Z,12.00
2023-02-20T16:24:24.802Z,11.90
2023-02-20T16:26:52.981Z,11.83
2023-02-20T16:29:28.143Z,11.72
2023-02-20T16:31:56.051Z,11.63
2023-02-20T16:34:26.459Z,11.69
2023-02-20T16:36:55.718Z,11.69
2023-02-20T16:39:27.248Z,11.46
2023-02-20T16:41:58.311Z,11.42
2023-02-20T16:44:31.190Z,11.04
2023-02-20T16:46:59.465Z,10.82
2023-02-20T16:49:27.027Z,10.75
2023-02-20T16:52:03.280Z,10.78
2023-02-20T16:54:32.854Z,10.68
2023-02-20T16:56:59.897Z,10.64
2023-02-20T16:59:29.120Z,10.60
2023-02-20T17:01:58.398Z,10.61
2023-02-20T17:04:27.277Z,10.68
2023-02-20T17:06:57.218Z,10.64
2023-02-20T17:09:33.719Z,10.61
2023-02-20T17:12:09.647Z,10.59
2023-02-20T17:14:37.014Z,10.56
2023-02-20T17:17:07.400Z,10.52
2023-02-20T17:19:37.309Z,10.46
2023-02-20T17:22:05.486Z,10.42
2023-02-20T17:24:33.811Z,10.34
2023-02-20T17:27:02.481Z,10.35
2023-02-20T17:29:31.679Z,10.27
2023-02-20T17:32:00.843Z,10.21
2023-02-20T17:34:29.675Z,10.17
2023-02-20T17:36:57.893Z,10.17
2023-02-20T17:39:26.881Z,10.19
2023-02-20T17:41:57.969Z,10.22
2023-02-20T17:44:30.609Z,10.12
2023-02-20T17:47:01.500Z,10.24
2023-02-20T17:49:30.197Z,10.17
2023-02-20T17:52:01.428Z,10.07
2023-02-20T17:54:32.583Z,10.08
2023-02-20T17:57:01.479Z,9.97
2023-02-20T17:59:31.639Z,10.04
2023-02-20T18:02:00.102Z,9.91
2023-02-20T18:04:28.577Z,9.87
2023-02-20T18:06:56.872Z,9.92
2023-02-20T18:09:24.262Z,9.86
2023-02-20T18:11:51.996Z,9.83
2023-02-20T18:14:20.678Z,9.76
2023-02-20T18:16:50.401Z,9.78
2023-02-20T18:19:19.409Z,9.86
2023-02-20T18:21:50.543Z,9.75
2023-02-20T18:24:24.064Z,9.70
2023-02-20T18:26:55.468Z,9.61
2023-02-20T18:29:25.332Z,9.57
2023-02-20T18:31:54.489Z,9.50
2023-02-20T18:34:23.022Z,9.48
2023-02-20T18:36:55.986Z,9.45
2023-02-20T18:39:24.524Z,9.33
2023-02-20T18:41:56.338Z,9.19
2023-02-20T18:44:24.179Z,9.06
2023-02-20T18:46:52.453Z,9.11
2023-02-20T18:49:22.175Z,8.99
2023-02-20T18:51:50.555Z,8.95
2023-02-20T18:54:23.017Z,8.84
2023-02-20T18:56:52.951Z,8.88
2023-02-20T18:59:23.044Z,8.87
2023-02-20T19:01:52.687Z,8.84
2023-02-20T19:04:22.414Z,8.86
2023-02-20T19:06:53.065Z,8.83
2023-02-20T19:09:23.207Z,8.99
2023-02-20T19:11:53.227Z,8.98
2023-02-20T19:14:23.058Z,8.93
2023-02-20T19:16:56.136Z,8.97
2023-02-20T19:19:26.797Z,8.81
2023-02-20T19:21:56.494Z,8.81
2023-02-20T19:24:24.721Z,8.84
2023-02-20T19:26:52.804Z,8.78
2023-02-20T19:29:21.169Z,8.78
2023-02-20T19:31:49.601Z,8.78
2023-02-20T19:34:18.147Z,8.85
2023-02-20T19:36:48.216Z,8.71
2023-02-20T19:39:15.733Z,8.63
2023-02-20T19:41:44.078Z,8.64
2023-02-20T19:44:16.841Z,8.54
2023-02-20T19:46:45.147Z,8.50
2023-02-20T19:49:13.117Z,8.46
2023-02-20T19:51:46.347Z,8.45
2023-02-20T19:54:13.759Z,8.56
2023-02-20T19:56:49.444Z,8.63
2023-02-20T19:59:18.275Z,8.70
2023-02-20T20:01:50.723Z,8.65
2023-02-20T20:04:22.274Z,8.59
2023-02-20T20:06:51.831Z,8.59
2023-02-20T20:09:35.588Z,8.59
2023-02-20T20:12:08.653Z,8.58
2023-02-20T20:14:38.503Z,8.63
2023-02-20T20:17:06.781Z,8.65
2023-02-20T20:19:34.507Z,8.58
2023-02-20T20:22:02.826Z,8.62
2023-02-20T20:24:31.972Z,8.69
2023-02-20T20:26:59.598Z,8.77
2023-02-20T20:29:27.739Z,8.67
2023-02-20T20:31:55.643Z,8.73
2023-02-20T20:34:26.110Z,8.73
2023-02-20T20:36:54.503Z,8.77
2023-02-20T20:39:22.945Z,8.74
2023-02-20T20:41:51.078Z,8.81
2023-02-20T20:44:21.830Z,8.79
2023-02-20T20:46:49.402Z,8.75
2023-02-20T20:49:18.567Z,8.68
2023-02-20T20:51:47.758Z,8.70
2023-02-20T20:54:17.047Z,8.64
2023-02-20T20:56:48.250Z,8.60
2023-02-20T20:59:17.554Z,8.41
2023-02-20T21:01:45.906Z,8.42
2023-02-20T21:04:14.629Z,8.45
2023-02-20T21:06:42.417Z,8.27
2023-02-20T21:09:11.993Z,8.39
2023-02-20T21:11:41.543Z,8.43
2023-02-20T21:14:10.664Z,8.38
2023-02-20T21:16:39.252Z,8.53
2023-02-20T21:19:09.065Z,8.48
2023-02-20T21:21:37.295Z,8.27
2023-02-20T21:24:06.755Z,8.31
2023-02-20T21:26:35.580Z,8.28
2023-02-20T21:29:04.561Z,8.28
2023-02-20T21:31:32.719Z,8.24
2023-02-20T21:34:01.900Z,8.34
2023-02-20T21:36:30.275Z,8.34
2023-02-20T21:38:59.418Z,8.32
2023-02-20T21:41:42.412Z,8.23
2023-02-20T21:44:26.925Z,8.22
2023-02-20T21:47:05.387Z,8.29
2023-02-20T21:49:37.680Z,8.30
2023-02-20T21:52:06.196Z,8.18
2023-02-20T21:54:34.808Z,8.07
2023-02-20T21:57:02.364Z,8.10
2023-02-20T21:59:32.575Z,8.04
2023-02-20T22:02:02.169Z,8.07
2023-02-20T22:04:31.626Z,8.00
2023-02-20T22:07:16.702Z,8.09
2023-02-20T22:10:00.333Z,8.01
2023-02-20T22:12:44.274Z,8.05
2023-02-20T22:15:29.908Z,7.92
2023-02-20T22:18:13.740Z,8.02
2023-02-20T22:20:56.017Z,8.06
2023-02-20T22:23:39.248Z,8.07
2023-02-20T22:26:22.762Z,7.95
2023-02-20T22:29:05.473Z,7.87
2023-02-20T22:31:49.454Z,7.87
2023-02-20T22:34:32.632Z,7.77
2023-02-20T22:37:19.164Z,7.77
2023-02-20T22:40:03.326Z,7.58
2023-02-20T22:42:46.773Z,7.46
2023-02-20T22:45:30.500Z,7.48
2023-02-20T22:48:14.384Z,7.41
2023-02-20T22:50:57.300Z,7.35
2023-02-20T22:53:40.290Z,7.26
2023-02-20T22:56:23.890Z,7.26
2023-02-20T22:59:06.466Z,7.27
2023-02-20T23:01:50.043Z,7.27
2023-02-20T23:04:33.430Z,7.12
2023-02-20T23:07:16.731Z,7.09
2023-02-20T23:10:00.616Z,7.05
2023-02-20T23:12:43.109Z,7.12
2023-02-20T23:15:27.084Z,7.00
2023-02-20T23:18:09.842Z,7.06
2023-02-20T23:20:52.932Z,7.01
2023-02-20T23:23:36.420Z,6.92
2023-02-20T23:26:22.453Z,6.95
2023-02-20T23:29:05.489Z,6.96
2023-02-20T23:31:54.583Z,6.95
2023-02-20T23:34:41.466Z,6.88
2023-02-20T23:37:23.818Z,6.94
2023-02-20T23:40:06.815Z,7.14
2023-02-20T23:42:50.393Z,7.16
2023-02-20T23:45:33.449Z,7.13
2023-02-20T23:48:16.993Z,7.10
2023-02-20T23:51:00.391Z,7.03
2023-02-20T23:53:42.912Z,7.07
2023-02-20T23:56:25.894Z,7.04
2023-02-20T23:59:10.266Z,7.09
